LIBP/PSR METAR and TAF weather

Enter ICAO airport designator
Station Type Date Time Source
LIBP METAR 2019/12/06 08:50 UTC NOAA

LIBP 060850Z 23003KT 9999 FEW013 SCT015 BKN030 09/05 Q1026


Station Type Date Time Source
LIBP Decoded METAR 2019/12/06 08:50 UTC NOAA

Pescara, Italy (LIBP) 42-26N 014-12E 11M
Dec 06, 2019 - 03:50 AM EST / 2019.12.06 0850 UTC
Wind: from the SW (230 degrees) at 3 MPH (3 KT):0
Visibility: greater than 7 mile(s):0
Sky conditions: mostly cloudy
Temperature: 48 F (9 C)
Dew Point: 41 F (5 C)
Relative Humidity: 75%
Pressure (altimeter): 30.30 in. Hg (1026 hPa)
ob: LIBP 060850Z 23003KT 9999 FEW013 SCT015 BKN030 09/05 Q1026
cycle: 9

Station Type Date Time Source
LIBP TAF 2019/12/06 06:21 UTC NOAA

TAF LIBP 060500Z 0606/0706 VRB05KT 9999 SCT040

Example: see airport list